Time;durP1;ratioP1;P1;durP2;ratioP2;P2;SDS_P1;SDS_P2;PMS_P1;PMS_P2;Temp;Humidity;BMP_temperature;BMP_pressure;BME280_temperature;BME280_humidity;BME280_pressure;Samples;Min_cycle;Max_cycle;Signal;HPM_P1;HPM_P2
2021/01/21 00:00:35;;;;;;;96.78;42.17;;;;;;;;;;1757899;82;21125;-74
2021/01/21 00:03:03;;;;;;;86.75;41.30;;;;;;;;;;1757493;81;21137;-74
2021/01/21 00:05:29;;;;;;;87.05;39.75;;;;;;;;;;1757586;82;21105;-74
2021/01/21 00:07:56;;;;;;;100.10;42.90;;;;;;;;;;1757575;82;21283;-74
2021/01/21 00:10:22;;;;;;;85.45;41.15;;;;;;;;;;1757702;82;21137;-74
2021/01/21 00:12:50;;;;;;;98.15;41.63;;;;;;;;;;1757595;82;21175;-73
2021/01/21 00:15:16;;;;;;;103.40;43.90;;;;;;;;;;1757836;81;21108;-74
2021/01/21 00:17:42;;;;;;;97.57;41.37;;;;;;;;;;1757687;81;21548;-74
2021/01/21 00:20:09;;;;;;;89.10;44.03;;;;;;;;;;1757558;81;21145;-74
2021/01/21 00:22:35;;;;;;;84.97;40.92;;;;;;;;;;1757736;82;21128;-73
2021/01/21 00:25:01;;;;;;;83.33;41.48;;;;;;;;;;1757598;81;21152;-74
2021/01/21 00:27:27;;;;;;;88.92;41.45;;;;;;;;;;1757885;82;21136;-74
2021/01/21 00:29:53;;;;;;;87.55;41.18;;;;;;;;;;1757588;82;21176;-74
2021/01/21 00:32:20;;;;;;;89.45;42.53;;;;;;;;;;1757686;82;21140;-74
2021/01/21 00:34:46;;;;;;;87.95;42.53;;;;;;;;;;1766284;80;21145;-74
2021/01/21 00:37:12;;;;;;;85.95;40.12;;;;;;;;;;1786763;80;21149;-73
2021/01/21 00:39:38;;;;;;;90.35;42.43;;;;;;;;;;1739381;82;21596;-74
2021/01/21 00:42:04;;;;;;;91.63;42.15;;;;;;;;;;1780806;80;21181;-74
2021/01/21 00:44:30;;;;;;;87.97;41.68;;;;;;;;;;1818940;79;21137;-74
2021/01/21 00:46:57;;;;;;;92.27;43.80;;;;;;;;;;1818794;79;21093;-74
2021/01/21 00:49:23;;;;;;;88.87;42.95;;;;;;;;;;1819015;79;21149;-74
2021/01/21 00:51:50;;;;;;;91.65;41.95;;;;;;;;;;1818919;79;21098;-74
2021/01/21 00:54:16;;;;;;;96.40;44.90;;;;;;;;;;1818727;79;21142;-73
2021/01/21 00:56:42;;;;;;;93.95;42.75;;;;;;;;;;1818986;79;21132;-74
2021/01/21 00:59:08;;;;;;;97.42;42.85;;;;;;;;;;1818952;79;21111;-73
2021/01/21 01:01:34;;;;;;;103.45;42.62;;;;;;;;;;1819047;79;21097;-74
2021/01/21 01:04:00;;;;;;;87.27;42.85;;;;;;;;;;1733841;82;21141;-74
2021/01/21 01:06:27;;;;;;;93.72;43.28;;;;;;;;;;1819058;79;21552;-73
2021/01/21 01:08:53;;;;;;;90.50;42.67;;;;;;;;;;1819322;79;21157;-74
2021/01/21 01:11:19;;;;;;;90.72;42.17;;;;;;;;;;1819153;79;21153;-74
2021/01/21 01:13:45;;;;;;;97.25;42.80;;;;;;;;;;1819007;79;22277;-74
2021/01/21 01:16:12;;;;;;;91.22;40.23;;;;;;;;;;1819209;79;21148;-74
2021/01/21 01:18:38;;;;;;;96.28;43.83;;;;;;;;;;1818973;79;21157;-73
2021/01/21 01:21:04;;;;;;;100.00;43.23;;;;;;;;;;1819031;79;21157;-74
2021/01/21 01:23:30;;;;;;;102.07;42.95;;;;;;;;;;1818953;79;21138;-74
2021/01/21 01:25:57;;;;;;;82.95;40.33;;;;;;;;;;1819347;79;21169;-74
2021/01/21 01:28:23;;;;;;;93.03;42.43;;;;;;;;;;1818911;79;21158;-73
2021/01/21 01:30:49;;;;;;;81.28;39.85;;;;;;;;;;1818897;79;21149;-73
2021/01/21 01:33:16;;;;;;;93.10;41.68;;;;;;;;;;1818966;79;21553;-73
2021/01/21 01:35:42;;;;;;;92.47;41.05;;;;;;;;;;1819006;79;21153;-73
2021/01/21 01:38:08;;;;;;;102.85;43.78;;;;;;;;;;1819511;79;21125;-74
2021/01/21 01:40:35;;;;;;;92.22;41.85;;;;;;;;;;1818971;79;21124;-74
2021/01/21 01:43:01;;;;;;;91.75;41.15;;;;;;;;;;1822397;79;21565;-74
2021/01/21 01:45:27;;;;;;;110.15;45.05;;;;;;;;;;1822466;79;21177;-74
2021/01/21 01:47:54;;;;;;;102.07;41.70;;;;;;;;;;1822365;79;21152;-74
2021/01/21 01:50:20;;;;;;;97.57;41.75;;;;;;;;;;1822598;79;21114;-74
2021/01/21 01:52:46;;;;;;;99.92;43.83;;;;;;;;;;1822652;79;21243;-73
2021/01/21 01:55:13;;;;;;;102.78;42.88;;;;;;;;;;1822529;79;21129;-75
2021/01/21 01:57:40;;;;;;;91.08;41.13;;;;;;;;;;1822454;79;21675;-74
2021/01/21 02:00:06;;;;;;;95.70;43.10;;;;;;;;;;1822963;79;21122;-74
2021/01/21 02:02:33;;;;;;;100.95;44.60;;;;;;;;;;1822327;79;21126;-74
2021/01/21 02:05:00;;;;;;;107.78;42.60;;;;;;;;;;1742506;82;21107;-74
2021/01/21 02:07:26;;;;;;;104.80;44.15;;;;;;;;;;1756595;81;21145;-74
2021/01/21 02:09:52;;;;;;;103.22;41.63;;;;;;;;;;1756595;82;21129;-74
2021/01/21 02:12:20;;;;;;;85.20;39.40;;;;;;;;;;1756599;82;21188;-74
2021/01/21 02:14:48;;;;;;;85.07;38.65;;;;;;;;;;1756646;82;21169;-74
2021/01/21 02:17:16;;;;;;;79.40;32.65;;;;;;;;;;1772996;80;21307;-74
2021/01/21 02:19:44;;;;;;;86.05;39.27;;;;;;;;;;1773393;80;21167;-74
2021/01/21 02:22:29;;;;;;;84.45;39.80;;;;;;;;;;1742497;82;21108;-74
2021/01/21 02:25:03;;;;;;;97.92;42.10;;;;;;;;;;1773822;81;21124;-74
2021/01/21 02:27:31;;;;;;;82.00;33.80;;;;;;;;;;1742598;82;21305;-74
2021/01/21 02:29:57;;;;;;;83.65;38.33;;;;;;;;;;1756280;82;21129;-74
2021/01/21 02:32:40;;;;;;;95.65;40.78;;;;;;;;;;1756638;82;21616;-74
2021/01/21 02:35:09;;;;;;;92.30;37.65;;;;;;;;;;1697127;84;21148;-74
2021/01/21 02:37:36;;;;;;;90.20;39.55;;;;;;;;;;1733521;82;21615;-74
2021/01/21 02:40:04;;;;;;;89.07;40.43;;;;;;;;;;1742634;82;21155;-74
2021/01/21 02:42:30;;;;;;;87.53;39.33;;;;;;;;;;1765569;81;21242;-74
2021/01/21 02:44:57;;;;;;;64.92;27.45;;;;;;;;;;1818856;79;21157;-74
2021/01/21 02:47:23;;;;;;;86.87;37.78;;;;;;;;;;1818953;79;21097;-74
2021/01/21 02:49:49;;;;;;;94.58;39.48;;;;;;;;;;1787012;79;21145;-74
2021/01/21 02:52:29;;;;;;;87.42;38.28;;;;;;;;;;1818861;79;21125;-74
2021/01/21 02:55:03;;;;;;;85.40;37.83;;;;;;;;;;1818892;79;21129;-74
2021/01/21 02:57:48;;;;;;;90.67;40.00;;;;;;;;;;1819069;79;21102;-74
2021/01/21 03:00:15;;;;;;;64.40;31.30;;;;;;;;;;1819280;79;21145;-74
2021/01/21 03:02:43;;;;;;;84.15;34.90;;;;;;;;;;1818885;79;21187;-73
2021/01/21 03:05:09;;;;;;;84.58;36.30;;;;;;;;;;1818835;79;21145;-74
2021/01/21 03:07:36;;;;;;;88.30;37.15;;;;;;;;;;1818941;79;21141;-74
2021/01/21 03:10:04;;;;;;;90.00;35.98;;;;;;;;;;1818781;79;21141;-74
2021/01/21 03:12:30;;;;;;;72.47;30.48;;;;;;;;;;1818891;79;21129;-74
2021/01/21 03:14:56;;;;;;;95.17;36.28;;;;;;;;;;1818801;79;21125;-74
2021/01/21 03:17:23;;;;;;;96.02;38.80;;;;;;;;;;1818844;79;21149;-73
2021/01/21 03:19:49;;;;;;;85.90;35.95;;;;;;;;;;1818819;79;21592;-74
2021/01/21 03:22:15;;;;;;;88.72;37.65;;;;;;;;;;1819131;79;21129;-74
2021/01/21 03:24:42;;;;;;;78.52;29.35;;;;;;;;;;1819069;79;21161;-74
2021/01/21 03:27:08;;;;;;;88.90;36.88;;;;;;;;;;1818936;79;21169;-74
2021/01/21 03:29:34;;;;;;;85.72;35.52;;;;;;;;;;1818894;79;21165;-74
2021/01/21 03:32:00;;;;;;;81.92;34.00;;;;;;;;;;1818798;79;21094;-75
2021/01/21 03:34:26;;;;;;;86.00;34.50;;;;;;;;;;1818986;79;21102;-74
2021/01/21 03:36:53;;;;;;;86.40;34.83;;;;;;;;;;1818914;79;21192;-73
2021/01/21 03:39:19;;;;;;;90.32;36.93;;;;;;;;;;1819186;79;21153;-73
2021/01/21 03:41:45;;;;;;;89.80;37.38;;;;;;;;;;1820523;79;21106;-73
2021/01/21 03:44:11;;;;;;;81.60;34.05;;;;;;;;;;1824637;79;21133;-74
2021/01/21 03:46:37;;;;;;;77.97;29.80;;;;;;;;;;1824559;79;21102;-74
2021/01/21 03:49:03;;;;;;;80.15;34.30;;;;;;;;;;1824855;79;21164;-74
2021/01/21 03:51:29;;;;;;;83.17;31.82;;;;;;;;;;1824586;79;21121;-74
2021/01/21 03:53:55;;;;;;;84.25;32.98;;;;;;;;;;1824628;79;21153;-74
2021/01/21 03:56:21;;;;;;;72.45;34.40;;;;;;;;;;1824748;79;21125;-74
2021/01/21 03:58:48;;;;;;;77.22;32.28;;;;;;;;;;1824544;79;21137;-74
2021/01/21 04:01:14;;;;;;;81.15;32.13;;;;;;;;;;1823300;78;21161;-73
2021/01/21 04:03:40;;;;;;;84.47;33.50;;;;;;;;;;1811947;79;21116;-74
2021/01/21 04:06:06;;;;;;;84.25;37.65;;;;;;;;;;1824681;79;21133;-74
2021/01/21 04:08:32;;;;;;;75.78;35.05;;;;;;;;;;1824595;79;21556;-74
2021/01/21 04:10:58;;;;;;;75.95;33.85;;;;;;;;;;1824426;79;21094;-74
2021/01/21 04:13:24;;;;;;;68.00;31.82;;;;;;;;;;1824571;79;21172;-74
2021/01/21 04:15:50;;;;;;;70.15;32.00;;;;;;;;;;1824770;79;21152;-74
2021/01/21 04:18:16;;;;;;;68.70;33.63;;;;;;;;;;1824802;79;21552;-74
2021/01/21 04:20:42;;;;;;;64.97;30.35;;;;;;;;;;1824632;79;21117;-74
2021/01/21 04:23:09;;;;;;;70.97;33.95;;;;;;;;;;1824722;79;21132;-74
2021/01/21 04:25:35;;;;;;;71.72;33.35;;;;;;;;;;1824603;79;21165;-75
2021/01/21 04:28:03;;;;;;;81.10;33.75;;;;;;;;;;1824742;79;21125;-74
2021/01/21 04:30:29;;;;;;;83.03;35.88;;;;;;;;;;1824456;78;21102;-75
2021/01/21 04:32:56;;;;;;;84.20;35.20;;;;;;;;;;1824769;79;21136;-74
2021/01/21 04:35:22;;;;;;;84.37;37.15;;;;;;;;;;1824866;79;21145;-74
2021/01/21 04:37:48;;;;;;;70.17;31.90;;;;;;;;;;1824918;79;21125;-74
2021/01/21 04:40:14;;;;;;;72.97;33.13;;;;;;;;;;1824845;79;21172;-75
2021/01/21 04:42:41;;;;;;;71.75;33.00;;;;;;;;;;1824646;79;21133;-74
2021/01/21 04:45:07;;;;;;;76.02;32.35;;;;;;;;;;1825003;79;21161;-73
2021/01/21 04:47:33;;;;;;;71.22;31.80;;;;;;;;;;1824907;79;21101;-75
2021/01/21 04:50:00;;;;;;;68.40;30.60;;;;;;;;;;1824653;79;21147;-74
2021/01/21 04:52:26;;;;;;;72.30;32.13;;;;;;;;;;1824777;79;21168;-73
2021/01/21 04:54:54;;;;;;;67.87;31.40;;;;;;;;;;1824729;79;21122;-74
2021/01/21 04:57:21;;;;;;;75.42;34.43;;;;;;;;;;1824713;79;21118;-73
2021/01/21 04:59:47;;;;;;;79.65;34.50;;;;;;;;;;1824946;79;21125;-73
2021/01/21 05:02:13;;;;;;;74.85;33.75;;;;;;;;;;1824807;79;21138;-74
2021/01/21 05:04:39;;;;;;;76.30;33.05;;;;;;;;;;1824921;79;21129;-74
2021/01/21 05:07:05;;;;;;;73.72;31.75;;;;;;;;;;1824901;79;21137;-75
2021/01/21 05:09:31;;;;;;;86.30;32.95;;;;;;;;;;1824695;79;21156;-74
2021/01/21 05:11:57;;;;;;;88.75;35.60;;;;;;;;;;1824804;79;21533;-74
2021/01/21 05:14:24;;;;;;;86.40;35.25;;;;;;;;;;1824818;79;21552;-74
2021/01/21 05:16:50;;;;;;;80.40;32.42;;;;;;;;;;1824690;79;21129;-74
2021/01/21 05:19:16;;;;;;;76.85;32.15;;;;;;;;;;1824814;79;21133;-74
2021/01/21 05:21:42;;;;;;;71.17;31.62;;;;;;;;;;1795546;79;21140;-74
2021/01/21 05:24:09;;;;;;;79.58;33.35;;;;;;;;;;1824754;79;21137;-74
2021/01/21 05:26:35;;;;;;;68.15;31.60;;;;;;;;;;1824783;79;21560;-74
2021/01/21 05:29:02;;;;;;;78.85;35.33;;;;;;;;;;1824831;79;21163;-74
2021/01/21 05:31:28;;;;;;;70.42;31.37;;;;;;;;;;1824835;79;21133;-74
2021/01/21 05:33:54;;;;;;;98.10;34.08;;;;;;;;;;1824825;79;21165;-75
2021/01/21 05:36:20;;;;;;;70.52;29.90;;;;;;;;;;1824654;79;21139;-74
2021/01/21 05:38:51;;;;;;;72.90;33.08;;;;;;;;;;1824950;79;21129;-74
2021/01/21 05:41:18;;;;;;;67.80;31.30;;;;;;;;;;1815681;79;21625;-74
2021/01/21 05:43:47;;;;;;;65.57;30.32;;;;;;;;;;1787813;79;21117;-74
2021/01/21 05:46:14;;;;;;;71.97;31.42;;;;;;;;;;1819095;79;21604;-74
2021/01/21 05:48:40;;;;;;;70.10;29.07;;;;;;;;;;1787584;79;21145;-75
2021/01/21 05:51:06;;;;;;;66.25;30.27;;;;;;;;;;1819004;79;21145;-74
2021/01/21 05:53:32;;;;;;;76.33;32.75;;;;;;;;;;1819134;79;21121;-73
2021/01/21 05:55:58;;;;;;;71.33;32.63;;;;;;;;;;1787166;79;21137;-74
2021/01/21 05:58:25;;;;;;;71.12;33.38;;;;;;;;;;1819230;79;21157;-74
2021/01/21 06:00:51;;;;;;;71.28;31.90;;;;;;;;;;1819239;79;21125;-74
2021/01/21 06:03:17;;;;;;;80.35;34.80;;;;;;;;;;1787245;79;21526;-75
2021/01/21 06:05:44;;;;;;;86.47;35.78;;;;;;;;;;1819100;79;21130;-74
2021/01/21 06:08:10;;;;;;;88.40;36.15;;;;;;;;;;1787086;79;21542;-74
2021/01/21 06:10:36;;;;;;;92.88;37.95;;;;;;;;;;1819251;79;21125;-74
2021/01/21 06:13:05;;;;;;;84.25;36.65;;;;;;;;;;1787383;79;21148;-75
2021/01/21 06:15:31;;;;;;;97.40;39.53;;;;;;;;;;1817415;79;21132;-73
2021/01/21 06:17:57;;;;;;;95.15;39.15;;;;;;;;;;1819065;79;21133;-74
2021/01/21 06:20:23;;;;;;;103.60;40.08;;;;;;;;;;1818990;79;21553;-74
2021/01/21 06:22:49;;;;;;;103.07;41.90;;;;;;;;;;1818975;79;21172;-74
2021/01/21 06:25:17;;;;;;;108.20;43.40;;;;;;;;;;1818994;79;21565;-75
2021/01/21 06:27:44;;;;;;;95.15;39.83;;;;;;;;;;1819013;79;21541;-73
2021/01/21 06:30:16;;;;;;;95.85;36.50;;;;;;;;;;1819148;79;21557;-74
2021/01/21 06:32:48;;;;;;;88.82;37.38;;;;;;;;;;1818842;79;21110;-74
2021/01/21 06:35:16;;;;;;;85.87;37.00;;;;;;;;;;1818900;79;21604;-74
2021/01/21 06:37:42;;;;;;;84.37;34.40;;;;;;;;;;1819035;79;21136;-74
2021/01/21 06:40:11;;;;;;;88.07;37.70;;;;;;;;;;1819221;79;21133;-75
2021/01/21 06:42:39;;;;;;;96.12;38.42;;;;;;;;;;1818951;79;21569;-74
2021/01/21 06:45:05;;;;;;;102.15;37.13;;;;;;;;;;1818805;79;21114;-75
2021/01/21 06:47:31;;;;;;;96.60;37.65;;;;;;;;;;1819413;79;21283;-74
2021/01/21 06:49:58;;;;;;;93.97;38.78;;;;;;;;;;1818863;79;21142;-75
2021/01/21 06:52:26;;;;;;;78.87;33.50;;;;;;;;;;1818947;79;21141;-74
2021/01/21 06:54:52;;;;;;;76.28;31.77;;;;;;;;;;1818843;79;21098;-74
2021/01/21 06:57:35;;;;;;;81.05;34.65;;;;;;;;;;1818973;79;21137;-75
2021/01/21 07:00:03;;;;;;;83.20;35.10;;;;;;;;;;1818964;79;21129;-75
2021/01/21 07:02:43;;;;;;;77.12;34.18;;;;;;;;;;1818926;79;21554;-74
2021/01/21 07:05:13;;;;;;;92.62;37.83;;;;;;;;;;1818820;79;21125;-74
2021/01/21 07:07:57;;;;;;;100.87;38.80;;;;;;;;;;1819239;79;21148;-75
2021/01/21 07:10:24;;;;;;;110.75;43.68;;;;;;;;;;1818878;79;21165;-75
2021/01/21 07:12:51;;;;;;;110.32;42.45;;;;;;;;;;1819215;79;21141;-76
2021/01/21 07:15:17;;;;;;;89.95;38.88;;;;;;;;;;1819231;79;21549;-75
2021/01/21 07:17:43;;;;;;;88.40;38.30;;;;;;;;;;1818941;79;21612;-75
2021/01/21 07:20:10;;;;;;;92.70;37.88;;;;;;;;;;1819216;79;21153;-75
2021/01/21 07:22:36;;;;;;;91.57;38.17;;;;;;;;;;1819014;79;21137;-75
2021/01/21 07:25:04;;;;;;;87.85;37.78;;;;;;;;;;1787175;79;21564;-75
2021/01/21 07:27:31;;;;;;;105.17;41.13;;;;;;;;;;1818538;78;21577;-75
2021/01/21 07:30:15;;;;;;;95.90;40.33;;;;;;;;;;1818898;79;21141;-74
2021/01/21 07:32:41;;;;;;;98.97;38.63;;;;;;;;;;1818994;79;21553;-75
2021/01/21 07:35:26;;;;;;;93.52;42.90;;;;;;;;;;1818909;79;21144;-74
2021/01/21 07:37:52;;;;;;;108.57;43.25;;;;;;;;;;1819041;79;21121;-75
2021/01/21 07:40:20;;;;;;;87.45;38.70;;;;;;;;;;1819012;79;21554;-75
2021/01/21 07:42:48;;;;;;;86.78;35.43;;;;;;;;;;1784675;79;21101;-74
2021/01/21 07:45:22;;;;;;;85.50;39.53;;;;;;;;;;1803315;79;21141;-74
2021/01/21 07:47:48;;;;;;;94.30;40.73;;;;;;;;;;1803483;79;21132;-76
2021/01/21 07:50:21;;;;;;;99.85;43.00;;;;;;;;;;1803462;79;21379;-75
2021/01/21 07:52:48;;;;;;;96.47;40.03;;;;;;;;;;1803328;79;21129;-74
2021/01/21 07:55:14;;;;;;;85.42;37.10;;;;;;;;;;1803142;79;21438;-75
2021/01/21 07:57:41;;;;;;;93.10;39.38;;;;;;;;;;1803443;79;21545;-76
2021/01/21 08:00:10;;;;;;;88.12;40.28;;;;;;;;;;1803251;79;21141;-76
2021/01/21 08:02:49;;;;;;;96.22;40.35;;;;;;;;;;1803321;79;21193;-75
2021/01/21 08:05:19;;;;;;;82.00;36.23;;;;;;;;;;1803372;79;21193;-75
2021/01/21 08:07:52;;;;;;;67.08;32.25;;;;;;;;;;1803624;79;21202;-74
2021/01/21 08:10:21;;;;;;;70.70;34.53;;;;;;;;;;1803768;79;21572;-75
2021/01/21 08:12:51;;;;;;;68.42;33.65;;;;;;;;;;1803416;79;21180;-73
2021/01/21 08:15:18;;;;;;;78.35;35.70;;;;;;;;;;1803504;79;21181;-74
2021/01/21 08:17:45;;;;;;;65.05;32.93;;;;;;;;;;1803365;79;21124;-75
2021/01/21 08:20:14;;;;;;;66.15;32.63;;;;;;;;;;1803368;79;21106;-75
2021/01/21 08:22:55;;;;;;;69.42;34.83;;;;;;;;;;1803361;79;21125;-74
2021/01/21 08:25:21;;;;;;;76.17;37.85;;;;;;;;;;1803685;79;21668;-74
2021/01/21 08:27:48;;;;;;;77.72;38.17;;;;;;;;;;1803500;79;21165;-74
2021/01/21 08:30:19;;;;;;;66.10;32.00;;;;;;;;;;1803611;79;21573;-74
2021/01/21 08:32:45;;;;;;;69.50;31.40;;;;;;;;;;1803566;79;21295;-74
2021/01/21 08:35:13;;;;;;;66.87;33.18;;;;;;;;;;1803383;79;21557;-74
2021/01/21 08:37:39;;;;;;;69.37;33.13;;;;;;;;;;1803670;79;21129;-75
2021/01/21 08:40:05;;;;;;;67.85;32.80;;;;;;;;;;1803328;79;21163;-75
2021/01/21 08:42:32;;;;;;;62.50;31.20;;;;;;;;;;1805780;79;21385;-76
2021/01/21 08:44:58;;;;;;;61.63;31.20;;;;;;;;;;1819060;79;21568;-74
2021/01/21 08:47:24;;;;;;;69.92;32.30;;;;;;;;;;1819088;79;21129;-75
2021/01/21 08:49:51;;;;;;;69.60;31.65;;;;;;;;;;1819129;79;21113;-73
2021/01/21 08:52:17;;;;;;;82.27;35.10;;;;;;;;;;1818948;79;21121;-75
2021/01/21 08:54:52;;;;;;;69.62;33.35;;;;;;;;;;1819169;79;21173;-74
2021/01/21 08:57:21;;;;;;;77.03;34.38;;;;;;;;;;1818984;79;21137;-74
2021/01/21 08:59:46;;;;;;;67.53;32.38;;;;;;;;;;1818840;79;21125;-75
2021/01/21 09:02:14;;;;;;;75.70;33.13;;;;;;;;;;1818886;79;21133;-74
2021/01/21 09:04:41;;;;;;;80.60;35.00;;;;;;;;;;1819111;79;21156;-75
2021/01/21 09:07:09;;;;;;;80.62;39.05;;;;;;;;;;1819126;79;21125;-75
2021/01/21 09:09:37;;;;;;;82.40;37.03;;;;;;;;;;1818876;79;21603;-75
2021/01/21 09:12:17;;;;;;;77.15;34.95;;;;;;;;;;1817476;79;21117;-75
2021/01/21 09:14:44;;;;;;;68.15;32.63;;;;;;;;;;1819193;79;21141;-75
2021/01/21 09:17:14;;;;;;;70.12;32.67;;;;;;;;;;1819203;79;21311;-75
2021/01/21 09:19:42;;;;;;;67.67;31.10;;;;;;;;;;1819201;79;21167;-75
2021/01/21 09:22:10;;;;;;;70.10;32.98;;;;;;;;;;1819031;79;21102;-76
2021/01/21 09:24:57;;;;;;;68.00;32.67;;;;;;;;;;1818916;79;21090;-75
2021/01/21 09:27:23;;;;;;;71.15;33.08;;;;;;;;;;1819135;79;21129;-76
2021/01/21 09:29:53;;;;;;;64.37;29.85;;;;;;;;;;1819296;79;21125;-75
2021/01/21 09:32:19;;;;;;;64.37;31.05;;;;;;;;;;1819018;79;21141;-75
2021/01/21 09:34:52;;;;;;;73.50;32.42;;;;;;;;;;1818937;79;21137;-75
2021/01/21 09:37:19;;;;;;;63.68;30.80;;;;;;;;;;1819150;79;21094;-75
2021/01/21 09:39:46;;;;;;;69.80;33.35;;;;;;;;;;1818955;79;21150;-76
2021/01/21 09:42:12;;;;;;;67.12;34.23;;;;;;;;;;1819229;79;21379;-76
2021/01/21 09:44:38;;;;;;;61.92;29.75;;;;;;;;;;1818850;79;21165;-75
2021/01/21 09:47:04;;;;;;;63.85;33.40;;;;;;;;;;1818832;79;21136;-75
2021/01/21 09:49:30;;;;;;;66.42;33.23;;;;;;;;;;1819330;79;21573;-74
2021/01/21 09:51:59;;;;;;;56.25;30.95;;;;;;;;;;1818858;79;21126;-76
2021/01/21 09:54:25;;;;;;;62.70;32.58;;;;;;;;;;1818939;79;21118;-75
2021/01/21 09:56:52;;;;;;;56.15;30.60;;;;;;;;;;1818855;79;21148;-75
2021/01/21 09:59:19;;;;;;;64.05;32.00;;;;;;;;;;1818960;79;21133;-75
2021/01/21 10:01:46;;;;;;;61.53;32.73;;;;;;;;;;1819115;79;21152;-75
2021/01/21 10:04:12;;;;;;;63.68;34.50;;;;;;;;;;1818961;79;21133;-74
2021/01/21 10:06:38;;;;;;;61.50;33.38;;;;;;;;;;1818919;79;21554;-74
2021/01/21 10:09:05;;;;;;;59.60;34.03;;;;;;;;;;1818865;79;21145;-75
2021/01/21 10:11:31;;;;;;;66.72;34.63;;;;;;;;;;1819160;79;21089;-74
2021/01/21 10:13:57;;;;;;;57.40;35.70;;;;;;;;;;1818967;79;21138;-75
2021/01/21 10:16:23;;;;;;;59.95;37.23;;;;;;;;;;1818919;79;21554;-74
2021/01/21 10:18:49;;;;;;;66.20;39.33;;;;;;;;;;1819126;79;21125;-74
2021/01/21 10:21:15;;;;;;;67.82;38.78;;;;;;;;;;1819113;79;21640;-74
2021/01/21 10:23:42;;;;;;;68.33;39.73;;;;;;;;;;1818937;79;21585;-75
2021/01/21 10:26:08;;;;;;;72.90;40.85;;;;;;;;;;1819353;79;21125;-74
2021/01/21 10:28:34;;;;;;;66.72;39.63;;;;;;;;;;1818963;79;21525;-74
2021/01/21 10:31:00;;;;;;;58.00;35.95;;;;;;;;;;1818947;79;21129;-74
2021/01/21 10:33:27;;;;;;;63.63;39.27;;;;;;;;;;1818928;79;21137;-74
2021/01/21 10:35:53;;;;;;;63.78;38.78;;;;;;;;;;1818951;79;21137;-74
2021/01/21 10:38:20;;;;;;;62.45;39.35;;;;;;;;;;1818867;79;21137;-75
2021/01/21 10:40:46;;;;;;;64.40;39.60;;;;;;;;;;1818942;79;21736;-75
2021/01/21 10:43:17;;;;;;;66.22;40.10;;;;;;;;;;1818885;79;21171;-75
2021/01/21 10:45:43;;;;;;;62.38;38.73;;;;;;;;;;1818430;79;21129;-74
2021/01/21 10:48:10;;;;;;;58.83;37.58;;;;;;;;;;1818806;79;21133;-75
2021/01/21 10:50:39;;;;;;;59.27;37.55;;;;;;;;;;1819052;79;21252;-74
2021/01/21 10:53:05;;;;;;;59.25;37.15;;;;;;;;;;1819141;79;21605;-74
2021/01/21 10:55:35;;;;;;;58.50;37.85;;;;;;;;;;1818807;79;21149;-75
2021/01/21 10:57:59;;;;;;;59.00;36.13;;;;;;;;;;1817752;79;21133;-74
2021/01/21 11:00:25;;;;;;;61.10;36.77;;;;;;;;;;1818967;79;21122;-74
2021/01/21 11:02:51;;;;;;;57.65;35.83;;;;;;;;;;1818840;79;21128;-74
2021/01/21 11:05:17;;;;;;;58.13;37.28;;;;;;;;;;1818979;79;21541;-74
2021/01/21 11:07:44;;;;;;;58.78;37.83;;;;;;;;;;1819192;79;21199;-75
2021/01/21 11:10:10;;;;;;;59.63;37.85;;;;;;;;;;1818830;79;21114;-74
2021/01/21 11:12:36;;;;;;;60.12;38.98;;;;;;;;;;1819108;79;21152;-74
2021/01/21 11:15:03;;;;;;;62.27;40.52;;;;;;;;;;1819080;79;21545;-75
2021/01/21 11:17:29;;;;;;;61.15;40.80;;;;;;;;;;1819247;79;21173;-75
2021/01/21 11:20:00;;;;;;;59.88;40.50;;;;;;;;;;1818921;79;21572;-75
2021/01/21 11:22:26;;;;;;;60.52;39.65;;;;;;;;;;1817825;79;21563;-76
2021/01/21 11:24:52;;;;;;;62.93;41.48;;;;;;;;;;1819191;79;21141;-74
2021/01/21 11:27:18;;;;;;;64.20;42.35;;;;;;;;;;1818824;79;21124;-74
2021/01/21 11:29:45;;;;;;;59.55;40.40;;;;;;;;;;1818839;79;21768;-74
2021/01/21 11:32:11;;;;;;;61.33;42.15;;;;;;;;;;1819196;79;21133;-74
2021/01/21 11:34:38;;;;;;;58.87;42.27;;;;;;;;;;1818855;79;21569;-74
2021/01/21 11:37:04;;;;;;;59.58;42.00;;;;;;;;;;1818999;79;21134;-74
2021/01/21 11:39:30;;;;;;;55.65;39.42;;;;;;;;;;1818900;79;21565;-73
2021/01/21 11:41:56;;;;;;;54.60;38.40;;;;;;;;;;1819027;79;21144;-73
2021/01/21 11:44:22;;;;;;;54.55;37.55;;;;;;;;;;1818742;79;21153;-75
2021/01/21 11:46:49;;;;;;;54.03;38.73;;;;;;;;;;1818988;79;21549;-74
2021/01/21 11:49:15;;;;;;;51.15;37.75;;;;;;;;;;1819052;79;21144;-74
2021/01/21 11:51:41;;;;;;;53.08;38.15;;;;;;;;;;1818787;79;21177;-73
2021/01/21 11:54:07;;;;;;;49.10;35.90;;;;;;;;;;1819249;79;21137;-73
2021/01/21 11:56:33;;;;;;;42.20;30.55;;;;;;;;;;1818791;79;21537;-73
2021/01/21 11:59:00;;;;;;;40.92;28.60;;;;;;;;;;1818985;79;21114;-74
2021/01/21 12:01:26;;;;;;;34.48;25.55;;;;;;;;;;1818896;79;21596;-74
2021/01/21 12:03:52;;;;;;;33.55;24.60;;;;;;;;;;1819131;79;21133;-73
2021/01/21 12:06:19;;;;;;;36.75;25.12;;;;;;;;;;1818847;79;21548;-73
2021/01/21 12:08:45;;;;;;;32.03;24.52;;;;;;;;;;1818864;79;21121;-74
2021/01/21 12:11:11;;;;;;;42.35;27.77;;;;;;;;;;1819034;79;21110;-74
2021/01/21 12:13:37;;;;;;;35.05;26.15;;;;;;;;;;1818784;79;21113;-73
2021/01/21 12:16:03;;;;;;;38.65;28.55;;;;;;;;;;1818876;79;21212;-74
2021/01/21 12:18:30;;;;;;;35.00;25.97;;;;;;;;;;1818871;79;21118;-73
2021/01/21 12:20:56;;;;;;;36.83;26.57;;;;;;;;;;1818875;79;21149;-74
2021/01/21 12:23:22;;;;;;;36.93;26.60;;;;;;;;;;1818827;79;21145;-73
2021/01/21 12:25:48;;;;;;;34.83;25.17;;;;;;;;;;1818914;79;21149;-73
2021/01/21 12:28:15;;;;;;;40.00;27.35;;;;;;;;;;1818948;79;21134;-72
2021/01/21 12:30:41;;;;;;;38.00;26.93;;;;;;;;;;1818832;79;21102;-74
2021/01/21 12:33:07;;;;;;;37.35;26.52;;;;;;;;;;1818892;79;21098;-74
2021/01/21 12:35:33;;;;;;;36.25;25.45;;;;;;;;;;1818759;79;21120;-74
2021/01/21 12:37:59;;;;;;;35.28;24.95;;;;;;;;;;1818959;79;21153;-75
2021/01/21 12:40:25;;;;;;;37.93;25.23;;;;;;;;;;1819231;79;21149;-74
2021/01/21 12:42:52;;;;;;;40.35;26.00;;;;;;;;;;1818905;79;21565;-74
2021/01/21 12:45:18;;;;;;;40.28;25.12;;;;;;;;;;1818927;79;21145;-74
2021/01/21 12:47:44;;;;;;;36.70;24.72;;;;;;;;;;1818838;79;21494;-73
2021/01/21 12:50:12;;;;;;;37.23;23.73;;;;;;;;;;1818877;79;21574;-74
2021/01/21 12:52:38;;;;;;;39.10;24.55;;;;;;;;;;1819435;79;21168;-74
2021/01/21 12:55:05;;;;;;;36.35;22.60;;;;;;;;;;1818973;79;21113;-73
2021/01/21 12:57:31;;;;;;;40.78;24.25;;;;;;;;;;1819215;79;21102;-74
2021/01/21 12:59:58;;;;;;;40.67;24.10;;;;;;;;;;1818979;79;21560;-73
2021/01/21 13:02:29;;;;;;;39.88;25.08;;;;;;;;;;1819250;79;21133;-75
2021/01/21 13:04:53;;;;;;;40.23;23.45;;;;;;;;;;1818194;79;21548;-74
2021/01/21 13:07:19;;;;;;;39.55;25.02;;;;;;;;;;1818909;79;21156;-74
2021/01/21 13:09:45;;;;;;;36.35;23.40;;;;;;;;;;1819041;79;21636;-74
2021/01/21 13:12:11;;;;;;;41.10;24.00;;;;;;;;;;1818927;79;21125;-73
2021/01/21 13:14:38;;;;;;;38.15;22.98;;;;;;;;;;1819022;79;21576;-73
2021/01/21 13:17:04;;;;;;;40.40;23.73;;;;;;;;;;1819245;79;21129;-73
2021/01/21 13:19:34;;;;;;;38.80;21.77;;;;;;;;;;1818887;79;21149;-74
2021/01/21 13:21:58;;;;;;;44.42;23.90;;;;;;;;;;1818565;79;21580;-73
2021/01/21 13:24:24;;;;;;;38.83;23.05;;;;;;;;;;1818929;79;21114;-74
2021/01/21 13:26:51;;;;;;;37.73;22.77;;;;;;;;;;1818957;79;21541;-74
2021/01/21 13:29:17;;;;;;;41.02;23.80;;;;;;;;;;1818986;79;21117;-73
2021/01/21 13:31:43;;;;;;;42.83;22.98;;;;;;;;;;1819018;79;21149;-73
2021/01/21 13:34:09;;;;;;;38.30;23.02;;;;;;;;;;1819153;79;21128;-74
2021/01/21 13:36:35;;;;;;;43.95;25.15;;;;;;;;;;1818894;79;21640;-74
2021/01/21 13:39:01;;;;;;;42.20;24.55;;;;;;;;;;1819272;79;21129;-75
2021/01/21 13:41:29;;;;;;;44.20;24.02;;;;;;;;;;1818922;79;21577;-73
2021/01/21 13:43:55;;;;;;;46.63;24.65;;;;;;;;;;1819171;79;21113;-73
2021/01/21 13:46:21;;;;;;;41.68;24.82;;;;;;;;;;1822373;79;21298;-73
2021/01/21 13:48:47;;;;;;;41.77;25.30;;;;;;;;;;1822346;79;21199;-73
2021/01/21 13:51:13;;;;;;;41.92;25.17;;;;;;;;;;1822340;79;21102;-73
2021/01/21 13:53:39;;;;;;;41.33;23.55;;;;;;;;;;1822339;79;21168;-74
2021/01/21 13:56:06;;;;;;;41.53;24.87;;;;;;;;;;1822356;79;21153;-73
2021/01/21 13:58:32;;;;;;;43.60;24.10;;;;;;;;;;1822589;79;21128;-74
2021/01/21 14:00:58;;;;;;;40.03;22.35;;;;;;;;;;1822348;79;21141;-74
2021/01/21 14:03:25;;;;;;;39.65;23.32;;;;;;;;;;1822475;79;21279;-74
2021/01/21 14:05:51;;;;;;;43.28;24.40;;;;;;;;;;1822414;79;21212;-74
2021/01/21 14:08:17;;;;;;;44.53;24.98;;;;;;;;;;1822430;79;21283;-74
2021/01/21 14:10:45;;;;;;;43.25;25.80;;;;;;;;;;1822432;79;21129;-74
2021/01/21 14:13:13;;;;;;;48.70;27.10;;;;;;;;;;1822317;79;21307;-74
2021/01/21 14:15:39;;;;;;;46.75;25.65;;;;;;;;;;1821075;79;21137;-74